KSFB/SFB METAR and TAF weather

Enter ICAO airport designator
Station Type Date Time Source
KSFB METAR 2024/07/15 21:03 UTC NOAA

KSFB 152103Z 18009KT 8SM -TSRA FEW050 BKN085 OVC100 25/23 A3002 RMK AO2 LTG DSNT N AND S AND SW P0001 T02500233


Station Type Date Time Source
KSFB Decoded METAR 2024/07/15 21:03 UTC NOAA

ORLANDO SANFORD AIRPORT, FL, United States (KSFB) 28-47N 081-15W
Jul 15, 2024 - 05:03 PM EDT / 2024.07.15 2103 UTC
Wind: from the S (180 degrees) at 10 MPH (9 KT):0
Visibility: 8 mile(s):0
Sky conditions: overcast
Weather: light rain with thunder; Lightning observed
Precipitation last hour: 0.01 inches
Temperature: 77.0 F (25.0 C)
Dew Point: 73.9 F (23.3 C)
Relative Humidity: 90%
Pressure (altimeter): 30.02 in. Hg (1016 hPa)
ob: KSFB 152103Z 18009KT 8SM -TSRA FEW050 BKN085 OVC100 25/23 A3002 RMK AO2 LTG DSNT N AND S AND SW P0001 T02500233
cycle: 21

Station Type Date Time Source
KSFB TAF 2024/07/15 18:42 UTC NOAA